Aeroporto :







RITROVATECI SU...

 
LOGIN :

Iscrizione | Disclaimer

   EN    FR    IT 

 









Sommario :    VFR   VFR Marginale   IFR   IFR Intensivo   IFR Molto Intensivo
Visibilità : 
Base nubi : 
>= 8 km
>= 3000ft
5 / 8 km
1000 / 3000 ft
1500m / 5 km
500 / 1000 ft
800 / 1500m
200 / 500 ft
< 800m
< 200 ft
Simboli :   Temporali  Nebbia  Neve Forte  Precipitazioni Forti  Vento > 20 kt






- Altitudine del aeroporto : 90 ft
- Codice IATA : YHU


CYHU - Montréal Saint-Hubert

ULTIMO METAR :
  • 241100Z AUTO 17012KT 9SM OVC055 02/M05 A2985 RMK SLP110

METARs OBSOLETI :
  • 241000Z AUTO 18010KT 9SM OVC070 02/M05 A2985 RMK SLP112
  • 240900Z AUTO 18010G15KT 9SM OVC080 03/M04 A2986 RMK SLP113

TAF TAF CYHU
Valido dal 24 a 06 ore il 25 a 06 ore UTC


240538Z 2406/2506 18008KT P6SM BKN060
BECMG 2410/2412 SCT060
FM241500 20010G20KT P6SM SCT030
FM242000 23010G20KT P6SM BKN030
FM250100 23007KT P6SM SCT030 BKN190 RMK FCST BASED ON AUTO OBS. NXT FCST BY 241200Z



MetMap, La meteo Aeronautica in un colpo d'occhio ! - Copyright ORBIFLY Dicembre 2007 - Disclaimer

ORBIFLY MET'MAP TEAM :

Programmazione e sviluppo : Alexandra Zaïnal
Concezione : Baudouin d'Aumeries
Aiuto per la programmazione : Marc-Olivier Méhu
Supporto tecnico e logistico : Manuel Goepfert
Aiuto per la traduzione : Arnaldo La Scala

Contatto : metmap@orbifly.com




FONTI E CREDITI :

   NOAA